createdAt,value
2016-12-02T00:00:33.632Z,0
2016-12-02T00:01:47.259Z,0
2016-12-02T00:03:00.866Z,0
2016-12-02T00:04:13.964Z,0
2016-12-02T00:05:27.111Z,0
2016-12-02T00:06:40.715Z,0
2016-12-02T00:07:53.873Z,0
2016-12-02T00:09:06.951Z,0
2016-12-02T00:10:20.079Z,0
2016-12-02T00:11:33.640Z,0
2016-12-02T00:12:45.664Z,0
2016-12-02T00:13:58.496Z,0
2016-12-02T00:15:12.192Z,0
2016-12-02T00:16:25.843Z,0
2016-12-02T00:17:38.367Z,0
2016-12-02T00:18:52.217Z,0
2016-12-02T00:20:05.879Z,0
2016-12-02T00:21:19.186Z,0
2016-12-02T00:22:32.340Z,0
2016-12-02T00:23:46.037Z,0
2016-12-02T00:24:59.203Z,0
2016-12-02T00:26:12.901Z,0
2016-12-02T00:27:26.528Z,0
2016-12-02T00:28:39.682Z,0
2016-12-02T00:29:52.795Z,0
2016-12-02T00:31:06.732Z,0
2016-12-02T00:32:19.823Z,0
2016-12-02T00:33:33.508Z,0
2016-12-02T00:34:47.176Z,0
2016-12-02T00:36:00.818Z,0
2016-12-02T00:37:14.443Z,0
2016-12-02T00:38:28.071Z,0
2016-12-02T00:39:41.191Z,0
2016-12-02T00:40:54.316Z,0
2016-12-02T00:42:07.394Z,0
2016-12-02T00:43:20.504Z,0
2016-12-02T00:44:34.174Z,0
2016-12-02T00:45:47.302Z,0
2016-12-02T00:47:00.880Z,0
2016-12-02T00:48:13.968Z,0
2016-12-02T00:49:27.625Z,0
2016-12-02T00:50:41.257Z,0
2016-12-02T00:51:54.827Z,0
2016-12-02T00:53:08.259Z,0
2016-12-02T00:54:20.999Z,0
2016-12-02T00:55:34.686Z,0
2016-12-02T00:56:48.344Z,0
2016-12-02T00:58:01.975Z,0
2016-12-02T00:59:15.096Z,0
2016-12-02T01:00:28.813Z,0
2016-12-02T01:01:42.469Z,0
2016-12-02T01:02:56.134Z,0
2016-12-02T01:04:09.868Z,0
2016-12-02T01:05:22.958Z,0
2016-12-02T01:06:36.126Z,0
2016-12-02T01:07:49.731Z,0
2016-12-02T01:09:03.400Z,0
2016-12-02T01:10:16.520Z,0
2016-12-02T01:11:29.702Z,0
2016-12-02T01:12:43.401Z,0
2016-12-02T01:13:57.168Z,0
2016-12-02T01:15:10.822Z,0
2016-12-02T01:16:23.917Z,0
2016-12-02T01:17:37.405Z,0
2016-12-02T01:18:50.844Z,0
2016-12-02T01:20:04.222Z,0
2016-12-02T01:21:17.317Z,0
2016-12-02T01:22:30.454Z,0
2016-12-02T01:23:44.059Z,0
2016-12-02T01:24:56.602Z,0
2016-12-02T01:26:10.199Z,0
2016-12-02T01:27:23.831Z,0
2016-12-02T01:28:37.501Z,0
2016-12-02T01:29:51.116Z,0
2016-12-02T01:31:04.481Z,0
2016-12-02T01:32:18.121Z,0
2016-12-02T01:33:31.770Z,0
2016-12-02T01:34:45.452Z,0
2016-12-02T01:35:59.121Z,0
2016-12-02T01:37:12.492Z,0
2016-12-02T01:38:26.220Z,0
2016-12-02T01:39:39.335Z,0
2016-12-02T01:40:52.708Z,0
2016-12-02T01:42:06.338Z,0
2016-12-02T01:43:19.445Z,0
2016-12-02T01:44:31.751Z,0
2016-12-02T01:45:44.602Z,0
2016-12-02T01:46:57.747Z,0
2016-12-02T01:48:11.436Z,0
2016-12-02T01:49:24.701Z,0
2016-12-02T01:50:38.353Z,0
2016-12-02T01:51:52.128Z,0
2016-12-02T01:53:05.794Z,0
2016-12-02T01:54:19.447Z,0
2016-12-02T01:55:33.054Z,0
2016-12-02T01:56:46.648Z,0
2016-12-02T01:58:00.265Z,0
2016-12-02T01:59:13.958Z,0
2016-12-02T02:00:26.574Z,0
2016-12-02T02:01:40.192Z,0
2016-12-02T02:02:53.527Z,0
2016-12-02T02:04:06.829Z,0
2016-12-02T02:05:19.690Z,0
2016-12-02T02:06:32.258Z,0
2016-12-02T02:07:46.165Z,0
2016-12-02T02:08:59.860Z,0
2016-12-02T02:10:13.460Z,0
2016-12-02T02:11:27.144Z,0
2016-12-02T02:12:40.307Z,0
2016-12-02T02:13:53.920Z,0
2016-12-02T02:15:07.568Z,0
2016-12-02T02:16:21.216Z,0
2016-12-02T02:17:34.089Z,0
2016-12-02T02:18:47.740Z,0
2016-12-02T02:20:00.936Z,0
2016-12-02T02:21:14.661Z,0
2016-12-02T02:22:28.303Z,0
2016-12-02T02:23:41.905Z,0
2016-12-02T02:24:55.570Z,0
2016-12-02T02:26:08.670Z,0
2016-12-02T02:27:21.778Z,0
2016-12-02T02:28:35.501Z,0
2016-12-02T02:29:48.496Z,0
2016-12-02T02:31:01.428Z,0
2016-12-02T02:32:15.124Z,0
2016-12-02T02:35:12.914Z,0
2016-12-02T02:36:26.582Z,0
2016-12-02T02:37:39.912Z,0
2016-12-02T02:40:01.940Z,0
2016-12-02T02:41:15.519Z,0
2016-12-02T02:42:29.103Z,0
2016-12-02T02:43:42.455Z,0
2016-12-02T02:44:55.718Z,0
2016-12-02T02:46:08.822Z,0
2016-12-02T02:47:21.839Z,0
2016-12-02T02:48:34.846Z,0
2016-12-02T02:49:47.884Z,0
2016-12-02T02:51:00.951Z,0
2016-12-02T02:52:14.521Z,0
2016-12-02T02:53:27.559Z,0
2016-12-02T02:54:40.835Z,0
2016-12-02T02:55:54.442Z,0
2016-12-02T02:57:07.511Z,0
2016-12-02T02:58:20.304Z,0
2016-12-02T02:59:33.924Z,0
2016-12-02T03:00:47.518Z,0
2016-12-02T03:02:01.213Z,0
2016-12-02T03:03:14.292Z,0
2016-12-02T03:04:27.885Z,0
2016-12-02T03:05:41.376Z,0
2016-12-02T03:06:54.991Z,0
2016-12-02T03:08:08.524Z,0
2016-12-02T03:09:53.232Z,0
2016-12-02T03:11:06.787Z,0
2016-12-02T03:12:20.388Z,0
2016-12-02T03:13:34.010Z,0
2016-12-02T03:14:46.556Z,0
2016-12-02T03:15:59.835Z,0
2016-12-02T03:17:11.920Z,0
2016-12-02T03:18:24.903Z,0
2016-12-02T03:19:38.135Z,0
2016-12-02T03:20:51.709Z,0
2016-12-02T03:22:05.256Z,0
2016-12-02T03:23:19.290Z,0
2016-12-02T03:24:32.387Z,0
2016-12-02T03:25:45.419Z,0
2016-12-02T03:26:58.978Z,0
2016-12-02T03:28:12.310Z,0
2016-12-02T03:29:25.909Z,0
2016-12-02T03:30:39.289Z,0
2016-12-02T03:31:52.839Z,0
2016-12-02T03:33:05.879Z,0
2016-12-02T03:34:19.408Z,0
2016-12-02T03:35:32.977Z,0
2016-12-02T03:36:46.096Z,0
2016-12-02T03:37:59.638Z,0
2016-12-02T03:39:12.647Z,0
2016-12-02T03:40:25.924Z,0
2016-12-02T03:41:39.027Z,0
2016-12-02T03:42:51.838Z,0
2016-12-02T03:44:05.411Z,0
2016-12-02T03:45:19.317Z,0
2016-12-02T03:46:31.861Z,0
2016-12-02T03:47:45.457Z,0
2016-12-02T03:48:59.023Z,0
2016-12-02T03:50:12.014Z,0
2016-12-02T03:51:25.604Z,0
2016-12-02T03:52:39.211Z,0
2016-12-02T03:53:51.721Z,0
2016-12-02T03:55:05.232Z,0
2016-12-02T03:56:19.184Z,0
2016-12-02T03:57:32.719Z,0
2016-12-02T03:58:46.132Z,0
2016-12-02T03:59:59.139Z,0
2016-12-02T04:01:13.015Z,0
2016-12-02T04:02:26.094Z,0
2016-12-02T04:03:39.862Z,0
2016-12-02T04:04:53.475Z,0
2016-12-02T04:06:07.072Z,0
2016-12-02T04:07:20.376Z,0
2016-12-02T04:08:33.945Z,0
2016-12-02T04:09:47.566Z,0
2016-12-02T04:11:00.628Z,0
2016-12-02T04:12:13.710Z,0
2016-12-02T04:13:26.765Z,0
2016-12-02T04:14:40.350Z,0
2016-12-02T04:15:53.951Z,0
2016-12-02T04:17:07.001Z,0
2016-12-02T04:18:20.295Z,0
2016-12-02T04:20:04.464Z,0
2016-12-02T04:21:18.084Z,0
2016-12-02T04:22:31.673Z,0
2016-12-02T04:23:44.689Z,0
2016-12-02T04:24:58.286Z,0
2016-12-02T04:26:11.816Z,0
2016-12-02T04:27:25.390Z,0
2016-12-02T04:28:38.968Z,0
2016-12-02T04:29:52.545Z,0
2016-12-02T04:31:06.134Z,0
2016-12-02T04:32:19.680Z,0
2016-12-02T04:33:33.233Z,0
2016-12-02T04:34:46.257Z,0
2016-12-02T04:35:59.822Z,0
2016-12-02T04:37:13.412Z,0
2016-12-02T04:38:26.965Z,0
2016-12-02T04:39:39.947Z,0
2016-12-02T04:40:53.273Z,0
2016-12-02T04:42:06.923Z,0
2016-12-02T04:43:20.493Z,0
2016-12-02T04:44:34.121Z,0
2016-12-02T04:45:47.675Z,0
2016-12-02T04:47:00.692Z,0
2016-12-02T04:48:14.267Z,0
2016-12-02T04:49:27.323Z,0
2016-12-02T04:50:40.342Z,0
2016-12-02T04:51:53.895Z,0
2016-12-02T04:53:07.503Z,0
2016-12-02T04:54:20.514Z,0
2016-12-02T04:55:34.053Z,0
2016-12-02T04:56:47.305Z,0
2016-12-02T04:58:00.920Z,0
2016-12-02T04:59:13.437Z,0
2016-12-02T05:00:26.953Z,0
2016-12-02T05:01:40.509Z,0
2016-12-02T05:02:53.993Z,0
2016-12-02T05:04:07.596Z,0
2016-12-02T05:05:20.628Z,0
2016-12-02T05:06:34.218Z,0
2016-12-02T05:07:47.757Z,0
2016-12-02T05:09:01.348Z,0
2016-12-02T05:10:13.943Z,0
2016-12-02T05:11:27.544Z,0
2016-12-02T05:12:41.153Z,0
2016-12-02T05:13:54.723Z,0
2016-12-02T05:15:07.754Z,0
2016-12-02T05:16:21.314Z,0
2016-12-02T05:17:34.878Z,0
2016-12-02T05:18:47.961Z,0
2016-12-02T05:20:00.945Z,0
2016-12-02T05:21:13.979Z,0
2016-12-02T05:22:27.562Z,0
2016-12-02T05:23:41.142Z,0
2016-12-02T05:24:53.107Z,0
2016-12-02T05:26:06.896Z,0
2016-12-02T05:27:20.436Z,0
2016-12-02T05:28:33.449Z,0
2016-12-02T05:29:45.993Z,0
2016-12-02T05:30:59.574Z,0
2016-12-02T05:32:13.175Z,0
2016-12-02T05:33:26.208Z,0
2016-12-02T05:34:38.724Z,0
2016-12-02T05:35:52.257Z,0
2016-12-02T05:37:05.895Z,0
2016-12-02T05:38:19.376Z,0
2016-12-02T05:39:32.838Z,0
2016-12-02T05:40:45.993Z,0
2016-12-02T05:41:59.110Z,0
2016-12-02T05:43:12.299Z,0
2016-12-02T05:44:25.862Z,0
2016-12-02T05:45:39.428Z,0
2016-12-02T05:46:53.049Z,0
2016-12-02T05:48:06.884Z,0
2016-12-02T05:49:19.345Z,0
2016-12-02T05:50:32.936Z,0
2016-12-02T05:51:46.228Z,0
2016-12-02T05:52:59.516Z,0
2016-12-02T05:54:12.533Z,0
2016-12-02T05:55:25.591Z,0
2016-12-02T05:56:38.619Z,0
2016-12-02T05:57:52.284Z,0
2016-12-02T05:59:05.929Z,0
2016-12-02T06:00:18.804Z,0
2016-12-02T06:01:31.614Z,0
2016-12-02T06:02:44.636Z,0
2016-12-02T06:03:58.194Z,0
2016-12-02T06:05:11.743Z,0
2016-12-02T06:06:24.786Z,0
2016-12-02T06:07:38.422Z,0
2016-12-02T06:08:51.755Z,0
2016-12-02T06:10:05.303Z,0
2016-12-02T06:11:18.387Z,0
2016-12-02T06:12:31.934Z,0
2016-12-02T06:13:45.482Z,0
2016-12-02T06:14:59.037Z,0
2016-12-02T06:16:43.180Z,0
2016-12-02T06:17:56.150Z,0
2016-12-02T06:19:40.277Z,0
2016-12-02T06:20:53.885Z,0
2016-12-02T06:22:07.455Z,0
2016-12-02T06:23:20.984Z,0
2016-12-02T06:24:34.514Z,0
2016-12-02T06:25:48.106Z,0
2016-12-02T06:27:01.187Z,0
2016-12-02T06:28:14.795Z,0
2016-12-02T06:29:27.862Z,0
2016-12-02T06:30:40.968Z,0
2016-12-02T06:31:53.996Z,0
2016-12-02T06:33:06.906Z,0
2016-12-02T06:34:19.614Z,0
2016-12-02T06:35:32.916Z,0
2016-12-02T06:37:17.290Z,0
2016-12-02T06:38:30.906Z,0
2016-12-02T06:39:44.446Z,0
2016-12-02T06:40:57.996Z,0
2016-12-02T06:42:11.630Z,0
2016-12-02T06:43:25.422Z,0
2016-12-02T06:44:39.054Z,0
2016-12-02T06:45:52.605Z,0
2016-12-02T06:47:05.596Z,0
2016-12-02T06:48:19.025Z,0
2016-12-02T06:49:32.294Z,0
2016-12-02T06:50:46.208Z,0
2016-12-02T06:51:59.731Z,0
2016-12-02T06:53:13.318Z,0
2016-12-02T06:54:26.852Z,0
2016-12-02T06:55:39.525Z,0
2016-12-02T06:56:52.807Z,0
2016-12-02T06:58:06.115Z,0
2016-12-02T06:59:19.694Z,0
2016-12-02T07:00:33.208Z,0
2016-12-02T07:01:46.371Z,0
2016-12-02T07:02:59.996Z,0
2016-12-02T07:04:12.499Z,0
2016-12-02T07:05:26.072Z,0
2016-12-02T07:06:39.396Z,0
2016-12-02T07:07:52.977Z,0
2016-12-02T07:09:06.997Z,0
2016-12-02T07:10:20.068Z,0
2016-12-02T07:11:33.690Z,0
2016-12-02T07:12:47.398Z,0
2016-12-02T07:14:01.152Z,0
2016-12-02T07:15:14.229Z,0
2016-12-02T07:16:27.825Z,0
2016-12-02T07:17:41.370Z,0
2016-12-02T07:18:54.409Z,0
2016-12-02T07:20:08.098Z,0
2016-12-02T07:21:21.384Z,0
2016-12-02T07:22:34.494Z,0
2016-12-02T07:23:47.535Z,0
2016-12-02T07:25:01.085Z,0
2016-12-02T07:26:14.733Z,0
2016-12-02T07:27:28.247Z,0
2016-12-02T07:29:12.400Z,0
2016-12-02T07:30:25.960Z,0
2016-12-02T07:31:38.516Z,0
2016-12-02T07:32:51.597Z,0
2016-12-02T07:34:05.216Z,0
2016-12-02T07:35:18.788Z,0
2016-12-02T07:36:32.387Z,0
2016-12-02T07:37:46.234Z,0
2016-12-02T07:38:59.250Z,0
2016-12-02T07:40:13.145Z,0
2016-12-02T07:41:26.139Z,0
2016-12-02T07:42:38.771Z,0
2016-12-02T07:43:52.544Z,0
2016-12-02T07:45:06.100Z,0
2016-12-02T07:46:19.681Z,0
2016-12-02T07:47:32.684Z,0
2016-12-02T07:48:46.337Z,0
2016-12-02T07:49:59.920Z,0
2016-12-02T07:51:13.178Z,0
2016-12-02T07:52:26.774Z,0
2016-12-02T07:53:40.328Z,0
2016-12-02T07:54:53.933Z,0
2016-12-02T07:56:07.519Z,0
2016-12-02T07:57:21.061Z,0
2016-12-02T07:58:34.673Z,0
2016-12-02T07:59:48.304Z,0
2016-12-02T08:01:01.877Z,0
2016-12-02T08:02:14.104Z,0
2016-12-02T08:03:27.367Z,0
2016-12-02T08:04:40.973Z,0
2016-12-02T08:05:54.579Z,0
2016-12-02T08:07:08.109Z,0
2016-12-02T08:08:20.562Z,0
2016-12-02T08:09:34.167Z,0
2016-12-02T08:10:47.730Z,0
2016-12-02T08:12:01.378Z,0
2016-12-02T08:13:46.062Z,0
2016-12-02T08:14:59.163Z,0
2016-12-02T08:16:13.115Z,0
2016-12-02T08:17:26.455Z,0
2016-12-02T08:18:39.550Z,0
2016-12-02T08:19:52.586Z,0
2016-12-02T08:21:05.723Z,0
2016-12-02T08:22:18.819Z,0
2016-12-02T08:23:32.429Z,0
2016-12-02T08:26:30.472Z,0
2016-12-02T08:27:44.059Z,0
2016-12-02T08:28:57.692Z,0
2016-12-02T08:30:11.226Z,0
2016-12-02T08:31:24.792Z,0
2016-12-02T08:32:37.314Z,0
2016-12-02T08:33:50.864Z,0
2016-12-02T08:35:04.398Z,0
2016-12-02T08:36:17.957Z,0
2016-12-02T08:37:30.985Z,0
2016-12-02T08:38:44.579Z,0
2016-12-02T08:39:58.126Z,5
2016-12-02T08:41:11.471Z,5
2016-12-02T08:42:24.994Z,5
2016-12-02T08:43:38.585Z,5
2016-12-02T08:44:51.641Z,5
2016-12-02T08:46:05.191Z,5
2016-12-02T08:47:18.192Z,5
2016-12-02T08:48:31.791Z,5
2016-12-02T08:49:45.351Z,5
2016-12-02T08:50:58.878Z,5
2016-12-02T08:52:12.201Z,5
2016-12-02T08:53:25.809Z,5
2016-12-02T08:54:39.369Z,5
2016-12-02T08:55:52.346Z,5
2016-12-02T08:57:05.847Z,5
2016-12-02T08:58:19.499Z,5
2016-12-02T08:59:33.033Z,5
2016-12-02T09:00:46.621Z,10
2016-12-02T09:02:00.152Z,10
2016-12-02T09:03:13.212Z,10
2016-12-02T09:04:26.781Z,10
2016-12-02T09:05:40.055Z,10
2016-12-02T09:06:53.599Z,10
2016-12-02T09:08:07.131Z,10
2016-12-02T09:09:20.773Z,10
2016-12-02T09:10:33.784Z,10
2016-12-02T09:11:47.402Z,10
2016-12-02T09:13:00.681Z,10
2016-12-02T09:14:13.482Z,15
2016-12-02T09:15:58.162Z,15
2016-12-02T09:17:11.758Z,15
2016-12-02T09:18:24.802Z,15
2016-12-02T09:19:38.318Z,15
2016-12-02T09:20:51.909Z,15
2016-12-02T09:22:05.515Z,15
2016-12-02T09:25:02.201Z,15
2016-12-02T09:26:15.753Z,15
2016-12-02T09:27:28.804Z,15
2016-12-02T09:28:41.591Z,15
2016-12-02T09:29:54.632Z,20
2016-12-02T09:31:07.738Z,20
2016-12-02T09:32:20.776Z,20
2016-12-02T09:33:34.349Z,20
2016-12-02T09:34:47.923Z,20
2016-12-02T09:36:01.516Z,20
2016-12-02T09:37:15.174Z,20
2016-12-02T09:38:28.275Z,20
2016-12-02T09:39:41.500Z,20
2016-12-02T09:40:54.550Z,20
2016-12-02T09:42:07.606Z,20
2016-12-02T09:43:21.197Z,20
2016-12-02T09:44:34.217Z,20
2016-12-02T09:45:47.853Z,25
2016-12-02T09:47:01.484Z,25
2016-12-02T09:48:15.075Z,25
2016-12-02T09:49:28.712Z,25
2016-12-02T09:50:42.325Z,25
2016-12-02T09:51:55.883Z,25
2016-12-02T09:53:09.421Z,25
2016-12-02T09:54:22.571Z,25
2016-12-02T09:55:35.076Z,25
2016-12-02T09:56:48.189Z,25
2016-12-02T09:58:01.690Z,25
2016-12-02T09:59:14.918Z,25
2016-12-02T10:00:27.423Z,25
2016-12-02T10:01:40.991Z,25
2016-12-02T10:02:53.503Z,30
2016-12-02T10:04:07.094Z,30
2016-12-02T10:05:20.196Z,30
2016-12-02T10:06:33.797Z,30
2016-12-02T10:07:46.895Z,30
2016-12-02T10:09:00.587Z,30
2016-12-02T10:10:14.187Z,30
2016-12-02T10:11:27.731Z,30
2016-12-02T10:12:41.315Z,30
2016-12-02T10:13:54.406Z,30
2016-12-02T10:15:08.056Z,30
2016-12-02T10:16:20.560Z,30
2016-12-02T10:17:34.153Z,35
2016-12-02T10:18:47.651Z,35
2016-12-02T10:20:00.713Z,35
2016-12-02T10:21:14.300Z,35
2016-12-02T10:22:27.817Z,35
2016-12-02T10:23:40.903Z,35
2016-12-02T10:25:25.598Z,35
2016-12-02T10:26:39.223Z,35
2016-12-02T10:27:52.791Z,40
2016-12-02T10:29:05.906Z,40
2016-12-02T10:30:19.442Z,35
2016-12-02T10:31:33.048Z,35
2016-12-02T10:32:46.634Z,35
2016-12-02T10:34:00.213Z,35
2016-12-02T10:35:12.210Z,35
2016-12-02T10:36:25.010Z,35
2016-12-02T10:37:38.130Z,35
2016-12-02T10:38:51.718Z,40
2016-12-02T10:40:05.244Z,40
2016-12-02T10:41:18.794Z,40
2016-12-02T10:42:31.805Z,40
2016-12-02T10:43:44.565Z,40
2016-12-02T10:44:58.167Z,45
2016-12-02T10:46:11.212Z,45
2016-12-02T10:47:24.849Z,45
2016-12-02T10:48:38.421Z,45
2016-12-02T10:49:52.021Z,45
2016-12-02T10:51:05.280Z,45
2016-12-02T10:52:18.884Z,45
2016-12-02T10:53:32.500Z,45
2016-12-02T10:54:45.808Z,45
2016-12-02T10:55:57.802Z,45
2016-12-02T10:57:10.812Z,45
2016-12-02T10:58:24.400Z,45
2016-12-02T10:59:38.029Z,45
2016-12-02T11:00:51.614Z,45
2016-12-02T11:02:05.269Z,45
2016-12-02T11:03:18.697Z,45
2016-12-02T11:04:32.255Z,45
2016-12-02T11:05:45.824Z,45
2016-12-02T11:06:58.934Z,55
2016-12-02T11:08:11.957Z,50
2016-12-02T11:09:25.541Z,50
2016-12-02T11:10:39.072Z,50
2016-12-02T11:11:52.701Z,50
2016-12-02T11:13:06.301Z,50
2016-12-02T11:14:19.924Z,50
2016-12-02T11:15:33.452Z,60
2016-12-02T11:16:46.467Z,55
2016-12-02T11:17:59.021Z,55
2016-12-02T11:19:12.605Z,55
2016-12-02T11:20:26.145Z,55
2016-12-02T11:21:39.206Z,55
2016-12-02T11:22:52.249Z,55
2016-12-02T11:24:05.601Z,55
2016-12-02T11:25:18.923Z,55
2016-12-02T11:26:32.444Z,60
2016-12-02T11:27:45.454Z,60
2016-12-02T11:28:58.723Z,60
2016-12-02T11:30:12.345Z,60
2016-12-02T11:31:26.165Z,55
2016-12-02T11:32:40.068Z,55
2016-12-02T11:33:53.589Z,55
2016-12-02T11:35:07.066Z,55
2016-12-02T11:36:20.723Z,55
2016-12-02T11:37:33.793Z,50
2016-12-02T11:38:47.326Z,50
2016-12-02T11:40:00.885Z,50
2016-12-02T11:41:14.463Z,50
2016-12-02T11:42:28.056Z,50
2016-12-02T11:43:41.752Z,50
2016-12-02T11:44:55.285Z,50
2016-12-02T11:46:08.315Z,50
2016-12-02T11:47:21.391Z,50
2016-12-02T11:48:33.320Z,50
2016-12-02T11:49:46.858Z,45
2016-12-02T11:51:31.513Z,45
2016-12-02T11:52:44.543Z,45
2016-12-02T11:53:58.141Z,40
2016-12-02T11:55:11.703Z,40
2016-12-02T11:56:24.171Z,40
2016-12-02T11:57:37.232Z,40
2016-12-02T11:58:50.526Z,40
2016-12-02T12:00:04.014Z,40
2016-12-02T12:01:16.502Z,40
2016-12-02T12:02:30.112Z,40
2016-12-02T12:03:43.690Z,35
2016-12-02T12:04:56.723Z,35
2016-12-02T12:06:10.254Z,35
2016-12-02T12:07:23.837Z,40
2016-12-02T12:08:37.068Z,40
2016-12-02T12:09:49.064Z,35
2016-12-02T12:11:01.999Z,30
2016-12-02T12:12:15.506Z,30
2016-12-02T12:13:29.014Z,30
2016-12-02T12:14:42.569Z,30
2016-12-02T12:15:56.126Z,30
2016-12-02T12:17:09.117Z,35
2016-12-02T12:18:22.622Z,35
2016-12-02T12:19:34.659Z,35
2016-12-02T12:20:47.700Z,35
2016-12-02T12:22:01.234Z,30
2016-12-02T12:23:14.252Z,30
2016-12-02T12:24:27.797Z,35
2016-12-02T12:25:40.800Z,30
2016-12-02T12:26:53.321Z,35
2016-12-02T12:28:05.838Z,35
2016-12-02T12:29:19.476Z,35
2016-12-02T12:30:33.047Z,35
2016-12-02T12:31:46.577Z,35
2016-12-02T12:33:31.213Z,35
2016-12-02T12:34:44.789Z,35
2016-12-02T12:35:57.814Z,35
2016-12-02T12:37:11.355Z,35
2016-12-02T12:38:23.858Z,35
2016-12-02T12:39:37.426Z,35
2016-12-02T12:40:51.018Z,35
2016-12-02T12:42:04.058Z,35
2016-12-02T12:43:16.528Z,35
2016-12-02T12:44:28.998Z,35
2016-12-02T12:45:42.023Z,35
2016-12-02T12:46:55.564Z,35
2016-12-02T12:48:09.098Z,35
2016-12-02T12:49:22.079Z,35
2016-12-02T12:50:34.594Z,35
2016-12-02T12:51:48.227Z,35
2016-12-02T12:53:01.221Z,35
2016-12-02T12:54:14.786Z,35
2016-12-02T12:55:28.354Z,35
2016-12-02T12:56:41.770Z,35
2016-12-02T12:57:54.850Z,35
2016-12-02T12:59:08.411Z,35
2016-12-02T13:00:21.975Z,35
2016-12-02T13:01:34.987Z,35
2016-12-02T13:02:47.973Z,35
2016-12-02T13:04:01.494Z,35
2016-12-02T13:05:14.542Z,40
2016-12-02T13:06:28.123Z,40
2016-12-02T13:07:41.109Z,40
2016-12-02T13:08:54.165Z,35
2016-12-02T13:10:07.676Z,40
2016-12-02T13:11:51.845Z,40
2016-12-02T13:13:04.822Z,40
2016-12-02T13:14:18.348Z,40
2016-12-02T13:15:31.894Z,40
2016-12-02T13:16:45.476Z,40
2016-12-02T13:17:58.556Z,40
2016-12-02T13:19:43.277Z,40
2016-12-02T13:20:56.916Z,40
2016-12-02T13:22:10.189Z,40
2016-12-02T13:23:22.633Z,40
2016-12-02T13:24:36.223Z,40
2016-12-02T13:25:49.795Z,40
2016-12-02T13:27:03.350Z,40
2016-12-02T13:28:16.937Z,40
2016-12-02T13:30:56.756Z,40
2016-12-02T13:32:10.116Z,40
2016-12-02T13:33:23.173Z,45
2016-12-02T13:34:35.699Z,45
2016-12-02T13:35:48.893Z,45
2016-12-02T13:37:01.934Z,50
2016-12-02T13:38:14.867Z,45
2016-12-02T13:39:28.367Z,45
2016-12-02T13:40:40.869Z,45
2016-12-02T13:41:53.402Z,45
2016-12-02T13:43:06.404Z,45
2016-12-02T13:44:19.984Z,45
2016-12-02T13:45:33.043Z,45
2016-12-02T13:46:46.596Z,45
2016-12-02T13:47:59.102Z,45
2016-12-02T13:49:11.596Z,45
2016-12-02T13:50:24.021Z,45
2016-12-02T13:51:37.168Z,50
2016-12-02T13:52:49.123Z,50
2016-12-02T13:54:02.159Z,50
2016-12-02T13:55:15.197Z,55
2016-12-02T13:56:28.749Z,60
2016-12-02T13:57:42.403Z,65
2016-12-02T13:58:55.972Z,75
2016-12-02T14:00:08.489Z,90
2016-12-02T14:01:21.472Z,105
2016-12-02T14:02:35.025Z,125
2016-12-02T14:03:48.477Z,140
2016-12-02T14:05:01.563Z,160
2016-12-02T14:06:14.640Z,170
2016-12-02T14:07:28.291Z,170
2016-12-02T14:08:41.870Z,170
2016-12-02T14:09:54.414Z,175
2016-12-02T14:11:07.493Z,185
2016-12-02T14:12:21.005Z,190
2016-12-02T14:13:33.511Z,190
2016-12-02T14:14:47.095Z,205
2016-12-02T14:16:00.640Z,200
2016-12-02T14:17:13.717Z,205
2016-12-02T14:18:26.791Z,210
2016-12-02T14:19:40.274Z,215
2016-12-02T14:20:53.757Z,215
2016-12-02T14:22:06.278Z,215
2016-12-02T14:23:19.545Z,220
2016-12-02T14:24:33.103Z,215
2016-12-02T14:25:46.118Z,215
2016-12-02T14:26:59.675Z,215
2016-12-02T14:28:13.283Z,225
2016-12-02T14:29:26.756Z,220
2016-12-02T14:30:39.762Z,230
2016-12-02T14:31:53.314Z,235
2016-12-02T14:33:07.123Z,235
2016-12-02T14:34:20.178Z,230
2016-12-02T14:35:33.736Z,230
2016-12-02T14:36:46.746Z,235
2016-12-02T14:38:00.356Z,240
2016-12-02T14:39:13.331Z,245
2016-12-02T14:40:26.886Z,245
2016-12-02T14:41:39.419Z,230
2016-12-02T14:42:53.006Z,230
2016-12-02T14:44:06.644Z,240
2016-12-02T14:45:19.674Z,245
2016-12-02T14:46:32.162Z,245
2016-12-02T14:47:44.659Z,250
2016-12-02T14:48:58.252Z,255
2016-12-02T14:50:11.287Z,260
2016-12-02T14:51:24.931Z,260
2016-12-02T14:52:38.501Z,260
2016-12-02T14:53:52.035Z,265
2016-12-02T14:55:05.064Z,270
2016-12-02T14:56:18.080Z,270
2016-12-02T14:57:30.572Z,280
2016-12-02T14:58:44.067Z,275
2016-12-02T14:59:57.646Z,270
2016-12-02T15:01:10.620Z,275
2016-12-02T15:02:24.213Z,285
2016-12-02T15:03:37.269Z,280
2016-12-02T15:04:50.301Z,280
2016-12-02T15:06:02.744Z,285
2016-12-02T15:07:16.459Z,280
2016-12-02T15:08:29.467Z,280
2016-12-02T15:09:42.475Z,280
2016-12-02T15:10:55.509Z,280
2016-12-02T15:12:08.013Z,310
2016-12-02T15:13:21.056Z,265
2016-12-02T15:14:34.169Z,175
2016-12-02T15:15:47.734Z,160
2016-12-02T15:17:00.790Z,135
2016-12-02T15:18:13.772Z,135
2016-12-02T15:19:27.337Z,125
2016-12-02T15:20:40.877Z,110
2016-12-02T15:21:52.805Z,130
2016-12-02T15:23:06.363Z,145
2016-12-02T15:24:19.455Z,135
2016-12-02T15:25:32.522Z,135
2016-12-02T15:27:17.435Z,125
2016-12-02T15:28:31.009Z,110
2016-12-02T15:29:44.531Z,100
2016-12-02T15:30:57.058Z,95
2016-12-02T15:32:09.738Z,95
2016-12-02T15:33:22.248Z,100
2016-12-02T15:34:34.771Z,105
2016-12-02T15:35:47.284Z,110
2016-12-02T15:37:00.312Z,115
2016-12-02T15:38:12.847Z,125
2016-12-02T15:39:25.386Z,115
2016-12-02T15:40:38.966Z,130
2016-12-02T15:41:52.500Z,150
2016-12-02T15:43:05.480Z,245
2016-12-02T15:44:19.062Z,215
2016-12-02T15:45:32.053Z,160
2016-12-02T15:46:44.596Z,105
2016-12-02T15:47:56.532Z,90
2016-12-02T15:49:09.583Z,100
2016-12-02T15:50:23.122Z,95
2016-12-02T15:51:36.669Z,100
2016-12-02T15:52:49.652Z,110
2016-12-02T15:54:02.672Z,110
2016-12-02T15:55:15.758Z,105
2016-12-02T15:56:28.738Z,90
2016-12-02T15:57:41.729Z,85
2016-12-02T15:58:55.298Z,85
2016-12-02T16:00:08.846Z,80
2016-12-02T16:01:22.600Z,75
2016-12-02T16:02:35.635Z,75
2016-12-02T16:03:49.444Z,70
2016-12-02T16:05:02.960Z,65
2016-12-02T16:06:15.982Z,70
2016-12-02T16:07:29.465Z,75
2016-12-02T16:08:43.401Z,75
2016-12-02T16:09:55.878Z,80
2016-12-02T16:11:09.469Z,85
2016-12-02T16:12:22.971Z,90
2016-12-02T16:13:36.546Z,95
2016-12-02T16:14:50.132Z,95
2016-12-02T16:16:03.741Z,95
2016-12-02T16:17:16.827Z,95
2016-12-02T16:18:29.388Z,100
2016-12-02T16:19:42.957Z,125
2016-12-02T16:20:56.495Z,120
2016-12-02T16:22:10.291Z,100
2016-12-02T16:23:23.813Z,90
2016-12-02T16:24:37.444Z,90
2016-12-02T16:25:49.907Z,80
2016-12-02T16:27:03.485Z,70
2016-12-02T16:28:17.281Z,60
2016-12-02T16:29:30.826Z,50
2016-12-02T16:30:44.411Z,45
2016-12-02T16:31:58.038Z,45
2016-12-02T16:33:11.636Z,45
2016-12-02T16:34:24.073Z,45
2016-12-02T16:35:37.656Z,45
2016-12-02T16:36:51.207Z,45
2016-12-02T16:38:35.904Z,55
2016-12-02T16:39:49.595Z,55
2016-12-02T16:41:02.094Z,60
2016-12-02T16:42:15.591Z,70
2016-12-02T16:43:28.573Z,100
2016-12-02T16:44:42.130Z,110
2016-12-02T16:45:55.633Z,135
2016-12-02T16:47:08.616Z,280
2016-12-02T16:48:21.611Z,275
2016-12-02T16:49:34.598Z,275
2016-12-02T16:50:48.206Z,275
2016-12-02T16:52:01.785Z,275
2016-12-02T16:53:16.705Z,265
2016-12-02T16:54:30.287Z,265
2016-12-02T16:55:43.797Z,260
2016-12-02T16:56:56.898Z,265
2016-12-02T16:58:10.513Z,260
2016-12-02T16:59:23.571Z,230
2016-12-02T17:00:37.241Z,270
2016-12-02T17:01:50.859Z,280
2016-12-02T17:03:04.431Z,250
2016-12-02T17:04:18.032Z,235
2016-12-02T17:05:31.100Z,210
2016-12-02T17:06:44.662Z,195
2016-12-02T17:07:58.195Z,130
2016-12-02T17:09:11.739Z,135
2016-12-02T17:10:25.270Z,175
2016-12-02T17:11:38.788Z,120
2016-12-02T17:12:52.578Z,90
2016-12-02T17:14:05.647Z,75
2016-12-02T17:15:19.564Z,90
2016-12-02T17:16:33.132Z,135
2016-12-02T17:17:46.671Z,105
2016-12-02T17:19:00.251Z,190
2016-12-02T17:21:58.460Z,110
2016-12-02T17:23:10.993Z,90
2016-12-02T17:24:24.607Z,80
2016-12-02T17:25:38.178Z,75
2016-12-02T17:26:51.249Z,70
2016-12-02T17:28:04.773Z,70
2016-12-02T17:29:18.346Z,70
2016-12-02T17:30:31.899Z,60
2016-12-02T17:31:45.557Z,55
2016-12-02T17:32:59.118Z,50
2016-12-02T17:34:12.641Z,45
2016-12-02T17:35:26.168Z,50
2016-12-02T17:36:39.752Z,50
2016-12-02T17:37:52.817Z,55
2016-12-02T17:39:05.855Z,50
2016-12-02T17:40:19.643Z,45
2016-12-02T17:41:33.253Z,45
2016-12-02T17:42:46.882Z,45
2016-12-02T17:44:00.441Z,45
2016-12-02T17:45:13.999Z,45
2016-12-02T17:46:27.545Z,50
2016-12-02T17:47:41.151Z,50
2016-12-02T17:48:54.613Z,50
2016-12-02T17:50:07.656Z,50
2016-12-02T17:51:20.779Z,45
2016-12-02T17:52:34.332Z,50
2016-12-02T17:53:47.270Z,60
2016-12-02T17:55:00.771Z,75
2016-12-02T17:56:14.354Z,85